• Join FlightAware (Why Join?)
  • Login
  • US Flag 
09:51PM EDT


 

Airport Tracker/Info


-or-


 

Live Flight TrackerFlight Track Log ✈ JBU185 ✈ 12-Apr-2013 ✈ KJFK - KSAN

Flight Track Log - Related Links

Times and Time Zones

All times are in EDT time to prevent confusion due to time zone crossing. See the JBU185 flight status page for this flight to view local times or setup timezone preferences in your user account.

Time Position Orientation Groundspeed Altitude Reporting Facility
EDT Latitude Longitude Course Direction KTS MPH feet Rate Location/Type
05:47PM 40.6500 -73.7167 323° Northwest 181 208 2,100  Level New York TRACON
05:48PM 40.6667 -73.6333 75° East 274 315 3,100 1,860 Climbing New York TRACON
05:49PM 40.7000 -73.5500 62° Northeast 287 330 5,900 2,700 Climbing New York TRACON
05:50PM 41.0267 -74.0700 331° Northwest  Level FlightAware Approximate
05:50PM 40.7667 -73.4833 37° Northeast 294 338 8,500  Level New York TRACON
05:51PM 41.1307 -74.1481 331° Northwest  Level FlightAware Approximate
05:51PM 40.8333 -73.4667 11° North 299 344 10,700  Level New York TRACON
05:52PM 41.2339 -74.2253 339° North  Level FlightAware Approximate
05:52PM 40.9000 -73.5333 323° Northwest 279 321 12,600  Level New York TRACON
05:53PM 41.3371 -74.3037 323° Northwest  Level FlightAware Approximate
05:53PM 40.9500 -73.6167 308° West 292 336 14,600  Level New York TRACON
05:54PM 41.0000 -73.7000 309° West 325 374 15,400 720 Climbing New York TRACON
05:55PM 41.0667 -73.8167 307° West 369 425 16,100 780 Climbing New York TRACON
05:56PM 41.1333 -73.9167 312° West 385 443 17,000 720 Climbing New York TRACON
05:57PM 41.1583 -73.9569 310° West 387 445 17,100 60 Climbing New York Center
05:58PM 41.2239 -74.0647 309° West 387 445 17,100  Level New York Center
05:59PM 41.2939 -74.1731 311° West 387 445 17,100  Level New York Center
06:00PM 41.3614 -74.2844 309° West 387 445 17,200 840 Climbing New York Center
06:01PM 41.4186 -74.3869 307° West 387 445 18,900 1,740 Climbing New York Center
06:02PM 41.4731 -74.5089 301° West 387 445 20,700 1,620 Climbing New York Center
06:03PM 41.5292 -74.6478 298° West 387 445 22,100 1,260 Climbing New York Center
06:04PM 41.5872 -74.7758 301° West 394 453 23,300 1,080 Climbing New York Center
06:05PM 41.6431 -74.9069 300° West 399 459 24,300 1,020 Climbing New York Center
06:06PM 41.7008 -75.0383 301° West 404 465 25,400 1,620 Climbing New York Center
06:07PM 41.7564 -75.1725 299° West 409 471 27,600 1,680 Climbing New York Center
06:08PM 41.8081 -75.2928 300° West 404 465 28,800 840 Climbing New York Center
06:09PM 41.8614 -75.4217 299° West 399 459 29,300 420 Climbing New York Center
06:10PM 41.9183 -75.5594 299° West 409 471 29,700 420 Climbing New York Center
06:11PM 41.9753 -75.6975 299° West 414 476 30,200 480 Climbing New York Center
06:12PM 42.0319 -75.8331 299° West 419 482 30,700 420 Climbing New York Center
06:13PM 42.0808 -75.9569 298° West 419 482 31,100 420 Climbing New York Center
06:14PM 42.1719 -76.1867 298° West 439 505 31,900 300 Climbing Cleveland Center
06:15PM 42.2192 -76.3322 294° West 426 490 32,000  Climbing Cleveland Center
06:16PM 42.2683 -76.4833 294° West 415 478 32,000  Level Cleveland Center
06:17PM 42.3108 -76.6211 293° West 404 465 32,000  Level Cleveland Center
06:19PM 42.3972 -76.8969 293° West 404 465 32,000  Level Cleveland Center
06:20PM 42.4408 -77.0322 294° West 410 472 32,000  Level Cleveland Center
06:21PM 42.4847 -77.1706 293° West 410 472 32,000  Level Cleveland Center
06:22PM 42.5264 -77.3092 292° West 410 472 32,000  Level Cleveland Center
06:23PM 42.5697 -77.4481 293° West 410 472 32,000  Level Cleveland Center
06:24PM 42.6086 -77.5758 293° West 410 472 32,000  Level Cleveland Center
06:25PM 42.6519 -77.7178 293° West 410 472 32,000  Level Cleveland Center
06:26PM 42.6928 -77.8544 292° West 410 472 32,000  Level Cleveland Center
06:27PM 42.7356 -77.9939 293° West 410 472 32,000  Level Cleveland Center
06:28PM 42.7783 -78.1364 292° West 410 472 32,000  Level Cleveland Center
06:29PM 42.8186 -78.2736 292° West 410 472 32,000  Level Cleveland Center
06:30PM 42.8631 -78.4192 293° West 410 472 32,000  Level Cleveland Center
06:31PM 42.9097 -78.5764 292° West 415 478 32,000  Level Cleveland Center
06:32PM 42.9492 -78.6997 294° West 415 478 32,000  Level Cleveland Center
06:33PM 43.0036 -78.8400 298° West 410 472 32,000  Level Cleveland Center
06:34PM 43.0333 -78.9333 294° West 420 483 32,000  Level Toronto Center
06:35PM 43.0833 -79.0667 297° West 420 483 32,000 120 Level Toronto Center
06:36PM 43.1333 -79.2000 297° West 420 483 32,300 480 Climbing Toronto Center
06:37PM 43.2000 -79.3667 299° West 420 483 33,000 480 Climbing Toronto Center
06:38PM 43.2500 -79.5000 297° West 410 472 33,300 360 Climbing Toronto Center
06:39PM 43.3000 -79.6333 297° West 420 483 33,800 300 Climbing Toronto Center
06:40PM 43.3500 -79.7667 297° West 420 483 34,000 60 Climbing Toronto Center
06:41PM 43.4000 -79.9167 295° West 420 483 34,000  Level Toronto Center
06:42PM 43.4667 -80.0667 302° West 430 495 34,000  Level Toronto Center
06:43PM 43.5167 -80.2000 297° West 430 495 34,000  Level Toronto Center
06:44PM 43.5667 -80.3500 295° West 430 495 34,000  Level Toronto Center
06:45PM 43.6167 -80.5000 295° West 430 495 34,000  Level Toronto Center
06:46PM 43.6833 -80.6500 302° West 430 495 34,000  Level Toronto Center
06:47PM 43.7333 -80.8167 293° West 430 495 34,000  Level Toronto Center
06:48PM 43.7667 -80.9500 289° West 430 495 34,000  Level Toronto Center
06:49PM 43.8333 -81.1167 299° West 430 495 34,000  Level Toronto Center
06:50PM 43.8833 -81.2500 298° West 440 506 34,000  Level Toronto Center
06:51PM 43.9333 -81.4000 295° West 440 506 34,000  Level Toronto Center
06:52PM 43.9833 -81.5500 295° West 440 506 34,000  Level Toronto Center
06:53PM 44.0500 -81.7000 302° West 440 506 34,000  Level Toronto Center
06:54PM 44.1000 -81.8667 293° West 440 506 34,000  Level Toronto Center
06:55PM 44.1333 -82.0000 289° West 440 506 34,000  Level Toronto Center
06:56PM 44.2000 -82.1667 299° West 430 495 34,000  Level Toronto Center
06:57PM 44.2333 -82.3333 286° West 430 495 34,000  Level Toronto Center
06:58PM 44.2644 -82.4650 288° West 433 498 34,000  Level Minneapolis Center
06:59PM 44.2967 -82.6267 286° West 433 498 34,000  Level Minneapolis Center
07:00PM 44.3358 -82.8203 286° West 433 498 34,000 -60 Level Minneapolis Center
07:01PM 44.3678 -82.9831 285° West 434 499 33,900  Descending Minneapolis Center
07:02PM 44.3989 -83.1458 285° West 434 499 34,000  Climbing Minneapolis Center
07:03PM 44.4319 -83.3083 286° West 436 502 34,000 -60 Level Minneapolis Center
07:04PM 44.4717 -83.4683 289° West 435 501 33,900 -60 Descending Minneapolis Center
07:05PM 44.5308 -83.6197 299° West 441 507 33,900  Level Minneapolis Center
07:06PM 44.5878 -83.7753 297° West 446 513 34,000  Climbing Minneapolis Center
07:07PM 44.6556 -83.9619 297° West 448 516 33,900 -60 Descending Minneapolis Center
07:08PM 44.7136 -84.1192 298° West 453 521 33,900  Level Minneapolis Center
07:09PM 44.7700 -84.2797 296° West 458 527 34,000  Climbing Minneapolis Center
07:10PM 44.8283 -84.4425 297° West 464 534 34,000  Level Minneapolis Center
07:11PM 44.8861 -84.6031 297° West 463 533 34,000 -60 Level Minneapolis Center
07:12PM 44.9528 -84.7967 296° West 461 531 33,900  Descending Minneapolis Center
07:13PM 45.0100 -84.9583 297° West 462 532 34,000  Climbing Minneapolis Center
07:15PM 45.0664 -85.1208 296° West 463 533 34,000 -60 Level Minneapolis Center
07:16PM 45.1211 -85.2819 296° West 459 528 33,900 -60 Descending Minneapolis Center
07:17PM 45.1761 -85.4414 296° West 455 524 33,900  Level Minneapolis Center
07:18PM 45.2311 -85.6019 296° West 457 526 34,000  Climbing Minneapolis Center
07:19PM 45.2961 -85.7928 296° West 452 520 34,000 -60 Level Minneapolis Center
07:20PM 45.3486 -85.9503 295° West 446 513 33,900 -60 Descending Minneapolis Center
07:21PM 45.4008 -86.1078 295° West 447 514 33,900  Level Minneapolis Center
07:22PM 45.4533 -86.2661 295° West 445 512 33,900  Level Minneapolis Center
07:23PM 45.5050 -86.4242 295° West 445 512 34,000  Climbing Minneapolis Center
07:24PM 45.5692 -86.6161 296° West 449 517 34,000  Level Minneapolis Center
07:25PM 45.6219 -86.7786 295° West 452 520 34,000  Level Minneapolis Center
07:26PM 45.6742 -86.9408 295° West 452 520 34,000  Level Minneapolis Center
07:27PM 45.7264 -87.1014 295° West 448 516 34,000 -60 Level Minneapolis Center
07:28PM 45.7772 -87.2614 295° West 445 512 33,900 -60 Descending Minneapolis Center
07:29PM 45.8289 -87.4217 295° West 445 512 33,900  Level Minneapolis Center
07:30PM 45.8897 -87.6167 294° West 448 516 33,900  Level Minneapolis Center
07:31PM 45.9403 -87.7811 294° West 452 520 34,000  Climbing Minneapolis Center
07:32PM 45.9256 -87.9600 263° West 463 533 34,000  Level Minneapolis Center
07:33PM 45.8864 -88.1264 251° West 446 513 34,000  Level Minneapolis Center
07:34PM 45.8442 -88.3100 252° West 445 512 34,000  Level Minneapolis Center
07:35PM 45.8050 -88.4767 251° West 441 507 34,000  Level Minneapolis Center
07:36PM 45.7656 -88.6414 251° West 438 504 34,000  Level Minneapolis Center
07:37PM 45.7256 -88.8064 251° West 436 502 34,000  Level Minneapolis Center
07:38PM 45.6858 -88.9733 251° West 436 502 34,000 240 Level Minneapolis Center
07:39PM 45.6394 -89.1636 251° West 437 503 34,600 600 Climbing Minneapolis Center
07:40PM 45.5981 -89.3336 251° West 436 502 35,300 540 Climbing Minneapolis Center
07:41PM 45.5578 -89.4964 251° West 433 498 35,800 300 Climbing Minneapolis Center
07:42PM 45.5164 -89.6603 250° West 437 503 36,000 60 Climbing Minneapolis Center
07:43PM 45.4775 -89.8167 251° West 423 487 36,000  Level Minneapolis Center
07:44PM 45.4369 -89.9750 250° West 424 488 36,000  Level Minneapolis Center
07:46PM 45.3969 -90.1342 250° West 426 490 36,000  Level Minneapolis Center
07:47PM 45.3561 -90.2936 250° West 428 493 36,000  Level Minneapolis Center
07:48PM 45.3072 -90.4831 250° West 426 490 36,000  Level Minneapolis Center
07:49PM 45.2642 -90.6408 249° West 429 494 36,000  Level Minneapolis Center
07:50PM 45.2244 -90.7983 250° West 426 490 36,000  Level Minneapolis Center
07:51PM 45.1828 -90.9547 249° West 425 489 36,000  Level Minneapolis Center
07:52PM 45.1417 -91.1081 249° West 420 483 36,000  Level Minneapolis Center
07:53PM 45.0956 -91.2819 249° West 423 487 36,000 -60 Level Minneapolis Center
07:54PM 45.0536 -91.4419 250° West 418 481 35,900  Descending Minneapolis Center
07:55PM 45.0131 -91.5911 249° West 422 486 36,000  Climbing Minneapolis Center
07:56PM 44.9656 -91.7633 249° West 429 494 36,000  Level Minneapolis Center
07:57PM 44.9225 -91.9186 249° West 427 491 36,000  Level Minneapolis Center
07:58PM 44.8800 -92.0753 249° West 430 495 36,000  Level Minneapolis Center
07:59PM 44.8367 -92.2328 249° West 432 497 36,000  Level Minneapolis Center
08:01PM 44.7481 -92.5492 249° West 436 502 36,000  Level Minneapolis Center
08:02PM 44.7031 -92.7072 248° West 437 503 36,000  Level Minneapolis Center
08:03PM 44.6500 -92.8969 249° West 435 501 36,000  Level Minneapolis Center
08:04PM 44.6053 -93.0533 248° West 430 495 36,000  Level Minneapolis Center
08:05PM 44.5594 -93.2092 248° West 426 490 36,000  Level Minneapolis Center
08:06PM 44.5133 -93.3697 248° West 437 503 36,000  Level Minneapolis Center
08:07PM 44.4694 -93.5244 248° West 430 495 36,000  Level Minneapolis Center
08:08PM 44.4242 -93.6781 248° West 428 493 36,000  Level Minneapolis Center
08:09PM 44.3783 -93.8322 247° West 429 494 36,000  Level Minneapolis Center
08:10PM 44.3328 -93.9864 248° West 429 494 36,000  Level Minneapolis Center
08:11PM 44.2772 -94.1689 247° West 428 493 36,000  Level Minneapolis Center
08:12PM 44.2314 -94.3208 247° West 427 491 36,100 -300 Climbing Minneapolis Center
08:13PM 44.1858 -94.4708 247° West 423 487 35,400 -1,380 Descending Minneapolis Center
08:14PM 44.1400 -94.6214 247° West 425 489 33,300 -1,680 Descending Minneapolis Center
08:15PM 44.0897 -94.7844 247° West 414 476 32,000 -660 Descending Minneapolis Center
08:16PM 44.0425 -94.9367 247° West 425 489 32,000  Level Minneapolis Center
08:17PM 43.9964 -95.0842 247° West 419 482 32,000  Level Minneapolis Center
08:18PM 43.9503 -95.2311 246° West 416 479 32,000  Level Minneapolis Center
08:20PM 43.9047 -95.3789 247° West 416 479 32,000  Level Minneapolis Center
08:21PM 43.8553 -95.5267 245° Southwest 420 483 32,000  Level Minneapolis Center
08:22PM 43.8089 -95.6758 247° West 420 483 32,000  Level Minneapolis Center
08:23PM 43.7608 -95.8244 246° West 422 486 32,100  Climbing Minneapolis Center
08:24PM 43.7028 -96.0031 246° West 422 486 32,000 -60 Descending Minneapolis Center
08:25PM 43.6544 -96.1522 246° West 423 487 32,000  Level Minneapolis Center
08:26PM 43.6056 -96.3003 246° West 423 487 32,000  Level Minneapolis Center
08:27PM 43.5581 -96.4478 246° West 421 484 32,000  Level Minneapolis Center
08:28PM 43.5083 -96.5939 245° Southwest 421 484 32,000  Level Minneapolis Center
08:29PM 43.4611 -96.7394 246° West 417 480 32,000  Level Minneapolis Center
08:30PM 43.4122 -96.8858 245° Southwest 419 482 32,000  Level Minneapolis Center
08:31PM 43.3633 -97.0314 245° Southwest 418 481 32,000  Level Minneapolis Center
08:32PM 43.3044 -97.2047 245° Southwest 417 480 32,000  Level Minneapolis Center
08:33PM 43.2558 -97.3481 245° Southwest 415 478 32,000  Level Minneapolis Center
08:34PM 43.2078 -97.4919 245° Southwest 416 479 32,000  Level Minneapolis Center
08:35PM 43.1578 -97.6331 244° Southwest 412 474 32,000  Level Minneapolis Center
08:36PM 43.1092 -97.7758 245° Southwest 413 475 32,000  Level Minneapolis Center
08:37PM 43.0594 -97.9175 244° Southwest 413 475 32,000  Level Minneapolis Center
08:38PM 43.0106 -98.0603 245° Southwest 415 478 32,000  Level Minneapolis Center
08:39PM 42.9500 -98.2311 244° Southwest 416 479 32,000  Level Minneapolis Center
08:40PM 42.8989 -98.3744 244° Southwest 419 482 32,000  Level Minneapolis Center
08:41PM 42.8556 -98.5011 245° Southwest 423 487 32,000  Level Minneapolis Center
08:42PM 42.7936 -98.6739 244° Southwest 424 488 32,000  Level Minneapolis Center
08:43PM 42.7431 -98.8183 245° Southwest 424 488 32,000  Level Minneapolis Center
08:44PM 42.6900 -98.9631 244° Southwest 428 493 32,000  Level Minneapolis Center
08:45PM 42.6378 -99.1086 244° Southwest 429 494 32,000  Level Minneapolis Center
08:46PM 42.5864 -99.2511 244° Southwest 424 488 32,000  Level Minneapolis Center
08:47PM 42.5328 -99.3953 243° Southwest 427 491 32,000  Level Minneapolis Center
08:48PM 42.4811 -99.5369 244° Southwest 423 487 32,000  Level Minneapolis Center
08:49PM 42.4594 -99.5944 243° Southwest 423 487 32,000  Level Denver Center
08:50PM 42.3997 -99.7556 243° Southwest 422 486 32,000  Level Denver Center
08:51PM 42.3408 -99.9136 243° Southwest 422 486 32,000  Level Denver Center
08:52PM 42.2994 -100.0250 243° Southwest 418 481 32,000  Level Denver Center
08:53PM 42.2411 -100.1797 243° Southwest 416 479 32,000  Level Denver Center
08:54PM 42.1825 -100.3333 243° Southwest 414 476 32,000  Level Denver Center
08:55PM 42.1331 -100.4667 243° Southwest 416 479 32,000  Level Denver Center
08:56PM 42.0742 -100.6178 242° Southwest 411 473 32,000  Level Denver Center
08:57PM 42.0242 -100.7500 243° Southwest 413 475 32,000  Level Denver Center
08:58PM 41.9656 -100.9031 243° Southwest 413 475 32,000  Level Denver Center
08:59PM 41.9153 -101.0331 243° Southwest 411 473 32,000  Level Denver Center
09:00PM 41.8567 -101.1844 243° Southwest 411 473 32,000  Level Denver Center
09:01PM 41.8056 -101.3156 242° Southwest 413 475 32,000  Level Denver Center
09:02PM 41.7550 -101.4447 242° Southwest 410 472 32,000  Level Denver Center
09:03PM 41.6947 -101.5969 242° Southwest 414 476 32,000  Level Denver Center
09:04PM 41.6425 -101.7286 242° Southwest 419 482 32,000  Level Denver Center
09:05PM 41.5814 -101.8808 242° Southwest 418 481 32,000  Level Denver Center
09:06PM 41.5311 -102.0108 243° Southwest 416 479 32,000 240 Level Denver Center
09:07PM 41.4694 -102.1633 242° Southwest 418 481 32,500 600 Climbing Denver Center
09:08PM 41.4133 -102.2975 241° Southwest 429 494 33,300 1,080 Climbing Denver Center
09:09PM 41.3514 -102.4508 242° Southwest 422 486 34,800 1,260 Climbing Denver Center
09:10PM 41.2992 -102.5778 241° Southwest 410 472 36,000 540 Climbing Denver Center
09:11PM 41.2467 -102.7103 242° Southwest 399 459 36,000  Level Denver Center
09:12PM 41.1886 -102.8481 241° Southwest 405 466 36,000  Level Denver Center
09:13PM 41.1333 -102.9831 242° Southwest 407 468 36,000  Level Denver Center
09:14PM 41.0817 -103.1086 241° Southwest 406 467 36,000  Level Denver Center
09:15PM 41.0203 -103.2533 241° Southwest 404 465 36,000  Level Denver Center
09:17PM 40.9661 -103.3831 241° Southwest 405 466 36,000  Level Denver Center
09:18PM 40.9111 -103.5131 241° Southwest 405 466 36,000  Level Denver Center
09:19PM 40.8561 -103.6464 241° Southwest 409 471 36,000  Level Denver Center
09:20PM 40.7983 -103.7792 240° Southwest 414 476 36,000  Level Denver Center
09:21PM 40.7308 -103.9372 241° Southwest 421 484 36,000  Level Denver Center
09:22PM 40.6717 -104.0758 241° Southwest 432 497 36,100  Climbing Denver Center
09:23PM 40.6142 -104.2150 241° Southwest 431 496 36,000 -60 Descending Denver Center
09:24PM 40.5553 -104.3508 240° Southwest 425 489 36,000  Level Denver Center
09:25PM 40.4958 -104.4847 240° Southwest 423 487 36,000  Level Denver Center
09:26PM 40.4356 -104.6214 240° Southwest 428 493 36,000  Level Denver Center
09:27PM 40.3758 -104.7569 240° Southwest 428 493 36,000  Level Denver Center
09:28PM 40.3164 -104.8939 240° Southwest 430 495 36,000  Level Denver Center
09:29PM 40.2453 -105.0514 239° Southwest 429 494 36,000  Level Denver Center
09:30PM 40.1856 -105.1869 240° Southwest 427 491 36,100  Climbing Denver Center
09:31PM 40.1239 -105.3239 240° Southwest 435 501 36,000 -60 Descending Denver Center
09:32PM 40.0628 -105.4606 240° Southwest 434 499 36,000  Level Denver Center
09:33PM 39.9997 -105.5978 239° Southwest 439 505 36,100  Climbing Denver Center
09:34PM 39.9381 -105.7336 239° Southwest 438 504 36,000  Descending Denver Center
09:35PM 39.8678 -105.8886 239° Southwest 425 489 36,100  Climbing Denver Center
09:36PM 39.8067 -106.0228 239° Southwest 427 491 36,000 -60 Descending Denver Center
09:37PM 39.7450 -106.1569 239° Southwest 429 494 36,000  Level Denver Center
09:38PM 39.6853 -106.2858 239° Southwest 430 495 36,000  Level Denver Center
09:39PM 39.6194 -106.4306 239° Southwest 427 491 36,000  Level Denver Center
09:40PM 39.5586 -106.5625 239° Southwest 430 495 36,000  Level Denver Center
09:41PM 39.4886 -106.7125 239° Southwest 433 498 36,000  Level Denver Center
09:42PM 39.4275 -106.8417 239° Southwest 437 503 36,100  Climbing Denver Center
09:43PM 39.3667 -106.9714 239° Southwest 441 507 36,000 -60 Descending Denver Center
09:44PM 39.2953 -107.1225 239° Southwest 440 506 36,000  Level Denver Center
09:45PM 39.2342 -107.2494 238° Southwest 437 503 36,000  Level Denver Center
09:46PM 39.1622 -107.4003 238° Southwest 439 505 36,000  Level Denver Center
09:47PM 39.0992 -107.5303 238° Southwest 443 510 36,000  Level Denver Center
09:48PM 39.0267 -107.6808 238° Southwest 442 509 36,000  Level Denver Center
09:50PM 38.9647 -107.8100 238° Southwest 443 510 36,000  Level Denver Center
09:51PM 38.8922 -107.9617 238° Southwest 443 510 36,000  Level Denver Center
09:52PM 38.8289 -108.0900 238° Southwest 443 510 36,000  Level Denver Center
09:53PM 38.7667 -108.2181 238° Southwest 441 507 36,000  Level Denver Center
09:54PM 38.6928 -108.3667 238° Southwest 443 510 36,000  Level Denver Center
09:55PM 38.6300 -108.4944 238° Southwest 441 507 36,000  Level Denver Center
09:56PM 38.5564 -108.6431 238° Southwest 442 509 36,000  Level Denver Center
09:57PM 38.4931 -108.7703 238° Southwest 442 509 36,000  Level Denver Center
09:58PM 38.4194 -108.9167 237° Southwest 440 506 36,000  Level Denver Center
09:59PM 38.3553 -109.0436 237° Southwest 444 511 36,000  Level Denver Center
10:00PM 38.2814 -109.1917 238° Southwest 441 507 36,000  Level Denver Center
10:01PM 38.2172 -109.3167 237° Southwest 442 509 36,000  Level Denver Center
10:02PM 38.1531 -109.4400 237° Southwest 437 503 36,000  Level Denver Center
10:03PM 38.0789 -109.5881 238° Southwest 445 512 36,000  Level Denver Center
10:04PM 38.0142 -109.7144 237° Southwest 441 507 36,000  Level Denver Center
10:05PM 37.9594 -109.8181 236° Southwest 443 510 36,000  Level Denver Center
10:06PM 37.8739 -109.9861 237° Southwest 444 511 36,000  Level Denver Center
10:07PM 37.7967 -110.1339 237° Southwest 449 517 36,000  Level Denver Center
10:08PM 37.7297 -110.2606 236° Southwest 451 519 36,000  Level Denver Center
10:09PM 37.6533 -110.4067 237° Southwest 449 517 36,000  Level Denver Center
10:10PM 37.5869 -110.5347 237° Southwest 446 513 36,000  Level Denver Center
10:11PM 37.5156 -110.6669 236° Southwest 453 521 36,000  Level Denver Center
10:12PM 37.4453 -110.7997 236° Southwest 456 525 36,000  Level Denver Center
10:13PM 37.3742 -110.9344 236° Southwest 461 531 36,100  Climbing Denver Center
10:14PM 37.3028 -111.0653 236° Southwest 456 525 36,000 -60 Descending Denver Center
10:15PM 37.2192 -111.2236 236° Southwest 454 522 36,000  Level Denver Center
10:16PM 37.1317 -111.3425 227° Southwest 462 532 36,000  Level Denver Center
10:17PM 37.0467 -111.4639 229° Southwest 462 532 36,000  Level Denver Center
10:18PM 36.9606 -111.5819 228° Southwest 460 529 36,000  Level Denver Center
10:19PM 36.8747 -111.7006 228° Southwest 460 529 36,000  Level Denver Center
10:20PM 36.7867 -111.8206 228° Southwest 464 534 36,000  Level Denver Center
10:22PM 36.6975 -111.9425 228° Southwest 470 541 36,000  Level Denver Center
10:23PM 36.5903 -112.0883 228° Southwest 475 547 36,000  Level Denver Center
10:23PM 36.5522 -112.1375 226° Southwest 473 544 36,000  Level Los Angeles Center
10:24PM 36.4617 -112.2606 228° Southwest 479 551 36,000  Level Los Angeles Center
10:25PM 36.3722 -112.3819 228° Southwest 476 548 36,000  Level Los Angeles Center
10:26PM 36.2806 -112.5050 227° Southwest 482 555 36,000 -120 Level Los Angeles Center
10:27PM 36.1889 -112.6269 227° Southwest 483 556 35,800 -1,020 Descending Los Angeles Center
10:28PM 36.0811 -112.7711 227° Southwest 476 548 34,000 -900 Descending Los Angeles Center
10:29PM 35.9892 -112.8928 227° Southwest 481 554 34,000  Level Los Angeles Center
10:30PM 35.8972 -113.0133 227° Southwest 488 562 34,000  Level Los Angeles Center
10:31PM 35.8061 -113.1347 227° Southwest 488 562 34,000  Level Los Angeles Center
10:32PM 35.7147 -113.2547 227° Southwest 487 560 34,000  Level Los Angeles Center
10:33PM 35.6222 -113.3753 227° Southwest 491 565 34,000  Level Los Angeles Center
10:34PM 35.5108 -113.5203 227° Southwest 492 566 34,000  Level Los Angeles Center
10:35PM 35.4169 -113.6417 227° Southwest 495 570 34,000  Level Los Angeles Center
10:36PM 35.3233 -113.7647 227° Southwest 497 572 34,000  Level Los Angeles Center
10:37PM 35.2275 -113.8861 226° Southwest 499 574 34,000  Level Los Angeles Center
10:38PM 35.1261 -114.0169 227° Southwest 499 574 34,000 -180 Level Los Angeles Center
10:39PM 35.0289 -114.1403 226° Southwest 502 578 33,700 -660 Descending Los Angeles Center
10:41PM 34.9319 -114.2644 226° Southwest 503 579 32,700 -1,320 Descending Los Angeles Center
10:42PM 34.8136 -114.4144 226° Southwest 509 586 31,000 -1,320 Descending Los Angeles Center
10:43PM 34.7161 -114.5342 225° Southwest 502 578 30,000 -540 Descending Los Angeles Center
10:44PM 34.6267 -114.6344 223° Southwest 495 570 30,000  Level Los Angeles Center
10:45PM 34.5053 -114.7700 223° Southwest 495 570 30,000  Level Los Angeles Center
10:46PM 34.4044 -114.8847 223° Southwest 496 571 30,000  Level Los Angeles Center
10:47PM 34.3031 -114.9989 223° Southwest 498 573 30,000  Level Los Angeles Center
10:48PM 34.2019 -115.1125 223° Southwest 498 573 30,000  Level Los Angeles Center
10:49PM 34.1003 -115.2269 223° Southwest 499 574 30,000  Level Los Angeles Center
10:50PM 33.9981 -115.3403 223° Southwest 501 577 30,000  Level Los Angeles Center
10:51PM 33.8969 -115.4533 223° Southwest 498 573 30,000 -180 Level Los Angeles Center
10:52PM 33.7764 -115.5892 223° Southwest 495 570 29,700 -900 Descending Los Angeles Center
10:53PM 33.6767 -115.6989 222° Southwest 488 562 28,000 -1,860 Descending Los Angeles Center
10:54PM 33.5725 -115.8406 229° Southwest 469 540 25,600 -2,160 Descending Los Angeles Center
10:55PM 33.4961 -115.9594 232° Southwest 453 521 23,600 -2,100 Descending Los Angeles Center
10:56PM 33.4003 -116.0536 219° Southwest 445 512 21,300 -2,220 Descending Los Angeles Center
10:57PM 33.3081 -116.1475 220° Southwest 437 503 19,100 -2,100 Descending Los Angeles Center
10:58PM 33.2183 -116.2350 219° Southwest 421 484 17,000 -2,220 Descending Los Angeles Center
10:59PM 33.1172 -116.3344 219° Southwest 399 459 14,600 -2,100 Descending Los Angeles Center
11:00PM 33.0397 -116.4094 219° Southwest 382 440 12,800 -1,620 Descending Los Angeles Center
11:01PM 32.9553 -116.4719 212° Southwest 363 418 11,400 -1,260 Descending Los Angeles Center
11:02PM 32.8725 -116.5206 206° Southwest 342 394 10,300 -1,080 Descending Los Angeles Center
11:03PM 32.8164 -116.5864 225° Southwest 316 364 9,300 -1,080 Descending Los Angeles Center
11:04PM 32.7761 -116.6731 241° Southwest 301 346 8,100 -1,440 Descending Los Angeles Center
11:05PM 32.7283 -116.7728 240° Southwest 293 337 6,400 -1,320 Descending Los Angeles Center
11:06PM 32.6950 -116.8547 244° Southwest 284 327 5,400 -1,200 Descending Los Angeles Center
11:07PM 32.6717 -116.9356 251° West 266 306 4,000 -1,080 Descending Los Angeles Center
11:09PM 32.6872 -116.9992 286° West 212 244 3,200 -780 Descending Los Angeles Center
11:10PM 32.6992 -117.0486 286° West 169 194 2,400 -840 Descending Los Angeles Center
11:11PM 32.7128 -117.1000 287° West 143 165 1,500 -840 Descending Los Angeles Center
11:12PM 32.7208 -117.1433 282° West 137 158 800 -600 Descending Los Angeles Center
11:13PM 32.7311 -117.1800 288° West 136 157 300 -540 Descending Los Angeles Center